sensor_id;sensor_type;location;lat;lon;timestamp;P1;durP1;ratioP1;P2;durP2;ratioP2
67880;SDS011;54680;52.486;-1.890;2022-11-15T10:22:46;12.52;;;1.60;;
67880;SDS011;54680;52.486;-1.890;2022-11-15T10:25:20;7.82;;;1.50;;
67880;SDS011;54680;52.486;-1.890;2022-11-15T10:27:52;11.98;;;1.23;;
67880;SDS011;54680;52.486;-1.890;2022-11-15T10:30:20;4.30;;;0.98;;
67880;SDS011;54680;52.486;-1.890;2022-11-15T10:32:46;4.55;;;1.15;;
67880;SDS011;54680;52.486;-1.890;2022-11-15T10:35:16;10.25;;;1.33;;
67880;SDS011;54680;52.486;-1.890;2022-11-15T10:37:43;7.55;;;0.80;;
67880;SDS011;54680;52.486;-1.890;2022-11-15T10:43:03;14.52;;;1.20;;
67880;SDS011;54680;52.486;-1.890;2022-11-15T10:45:39;8.52;;;1.00;;
67880;SDS011;54680;52.486;-1.890;2022-11-15T10:48:20;11.05;;;1.13;;
67880;SDS011;54680;52.486;-1.890;2022-11-15T10:50:47;12.38;;;1.30;;
67880;SDS011;54680;52.486;-1.890;2022-11-15T10:53:23;11.98;;;1.90;;
67880;SDS011;54680;52.486;-1.890;2022-11-15T10:56:00;6.95;;;1.10;;
67880;SDS011;54680;52.486;-1.890;2022-11-15T10:58:32;9.40;;;1.05;;
67880;SDS011;54680;52.486;-1.890;2022-11-15T11:01:19;4.28;;;1.10;;
67880;SDS011;54680;52.486;-1.890;2022-11-15T11:04:03;13.70;;;1.15;;
67880;SDS011;54680;52.486;-1.890;2022-11-15T11:06:45;10.00;;;1.52;;
67880;SDS011;54680;52.486;-1.890;2022-11-15T11:09:32;7.40;;;1.02;;
67880;SDS011;54680;52.486;-1.890;2022-11-15T11:12:01;10.40;;;1.40;;
67880;SDS011;54680;52.486;-1.890;2022-11-15T11:14:29;10.80;;;1.23;;
67880;SDS011;54680;52.486;-1.890;2022-11-15T11:20:02;9.38;;;1.20;;
67880;SDS011;54680;52.486;-1.890;2022-11-15T11:22:46;6.78;;;1.35;;
67880;SDS011;54680;52.486;-1.890;2022-11-15T11:25:30;1.77;;;1.05;;
67880;SDS011;54680;52.486;-1.890;2022-11-15T11:36:50;9.75;;;1.38;;
67880;SDS011;54680;52.486;-1.890;2022-11-15T11:48:33;12.38;;;1.70;;
67880;SDS011;54680;52.486;-1.890;2022-11-15T11:51:10;10.35;;;1.00;;
67880;SDS011;54680;52.486;-1.890;2022-11-15T11:53:45;3.58;;;0.80;;
67880;SDS011;54680;52.486;-1.890;2022-11-15T11:56:24;12.65;;;1.30;;
67880;SDS011;54680;52.486;-1.890;2022-11-15T11:58:53;7.55;;;1.48;;
67880;SDS011;54680;52.486;-1.890;2022-11-15T12:01:30;5.63;;;1.60;;
67880;SDS011;54680;52.486;-1.890;2022-11-15T12:06:46;2.95;;;1.05;;
67880;SDS011;54680;52.486;-1.890;2022-11-15T12:12:13;10.38;;;1.20;;
67880;SDS011;54680;52.486;-1.890;2022-11-15T12:14:48;9.43;;;1.40;;
67880;SDS011;54680;52.486;-1.890;2022-11-15T12:17:27;3.47;;;0.77;;
67880;SDS011;54680;52.486;-1.890;2022-11-15T12:19:58;4.57;;;1.00;;
67880;SDS011;54680;52.486;-1.890;2022-11-15T12:22:33;4.10;;;0.95;;
67880;SDS011;54680;52.486;-1.890;2022-11-15T12:25:08;4.93;;;0.95;;
67880;SDS011;54680;52.486;-1.890;2022-11-15T12:27:53;4.30;;;1.20;;
67880;SDS011;54680;52.486;-1.890;2022-11-15T12:30:28;7.13;;;1.20;;
67880;SDS011;54680;52.486;-1.890;2022-11-15T12:33:14;5.80;;;1.43;;
67880;SDS011;54680;52.486;-1.890;2022-11-15T12:35:58;4.10;;;1.02;;
67880;SDS011;54680;52.486;-1.890;2022-11-15T12:41:32;5.20;;;0.88;;
67880;SDS011;54680;52.486;-1.890;2022-11-15T12:43:59;1.65;;;1.02;;
67880;SDS011;54680;52.486;-1.890;2022-11-15T12:52:11;4.43;;;1.23;;
67880;SDS011;54680;52.486;-1.890;2022-11-15T12:54:56;2.72;;;1.00;;
67880;SDS011;54680;52.486;-1.890;2022-11-15T12:57:27;1.67;;;0.88;;
67880;SDS011;54680;52.486;-1.890;2022-11-15T12:59:56;1.77;;;0.93;;
67880;SDS011;54680;52.486;-1.890;2022-11-15T13:02:27;4.07;;;1.00;;
67880;SDS011;54680;52.486;-1.890;2022-11-15T13:07:57;5.40;;;0.90;;
67880;SDS011;54680;52.486;-1.890;2022-11-15T13:10:33;4.35;;;1.02;;
67880;SDS011;54680;52.486;-1.890;2022-11-15T13:13:00;2.40;;;0.90;;
67880;SDS011;54680;52.486;-1.890;2022-11-15T13:15:31;0.80;;;0.80;;
67880;SDS011;54680;52.486;-1.890;2022-11-15T13:18:18;4.40;;;0.90;;
67880;SDS011;54680;52.486;-1.890;2022-11-15T13:20:52;2.28;;;0.93;;
67880;SDS011;54680;52.486;-1.890;2022-11-15T13:23:17;3.35;;;0.88;;
67880;SDS011;54680;52.486;-1.890;2022-11-15T13:28:44;1.92;;;0.88;;
67880;SDS011;54680;52.486;-1.890;2022-11-15T13:33:59;4.70;;;1.05;;
67880;SDS011;54680;52.486;-1.890;2022-11-15T13:36:28;2.72;;;1.20;;
67880;SDS011;54680;52.486;-1.890;2022-11-15T13:38:59;1.50;;;0.90;;
67880;SDS011;54680;52.486;-1.890;2022-11-15T13:41:29;1.67;;;0.50;;
67880;SDS011;54680;52.486;-1.890;2022-11-15T13:43:56;2.35;;;0.77;;
67880;SDS011;54680;52.486;-1.890;2022-11-15T13:46:31;1.00;;;0.90;;
67880;SDS011;54680;52.486;-1.890;2022-11-15T13:49:00;3.00;;;0.95;;
67880;SDS011;54680;52.486;-1.890;2022-11-15T13:54:16;4.28;;;0.93;;
67880;SDS011;54680;52.486;-1.890;2022-11-15T13:56:49;1.30;;;0.57;;
67880;SDS011;54680;52.486;-1.890;2022-11-15T13:59:24;2.35;;;0.55;;
67880;SDS011;54680;52.486;-1.890;2022-11-15T14:01:53;2.22;;;0.90;;
67880;SDS011;54680;52.486;-1.890;2022-11-15T14:04:20;3.22;;;0.77;;
67880;SDS011;54680;52.486;-1.890;2022-11-15T14:06:50;1.40;;;0.80;;
67880;SDS011;54680;52.486;-1.890;2022-11-15T14:12:21;1.17;;;0.70;;
67880;SDS011;54680;52.486;-1.890;2022-11-15T14:14:49;0.95;;;0.60;;
67880;SDS011;54680;52.486;-1.890;2022-11-15T14:17:18;2.53;;;1.00;;
67880;SDS011;54680;52.486;-1.890;2022-11-15T14:19:46;2.42;;;0.70;;
67880;SDS011;54680;52.486;-1.890;2022-11-15T14:22:16;1.58;;;0.60;;
67880;SDS011;54680;52.486;-1.890;2022-11-15T14:24:45;2.22;;;0.95;;
67880;SDS011;54680;52.486;-1.890;2022-11-15T14:27:29;1.42;;;0.70;;
67880;SDS011;54680;52.486;-1.890;2022-11-15T14:29:54;1.52;;;0.90;;
67880;SDS011;54680;52.486;-1.890;2022-11-15T14:32:21;0.65;;;0.65;;
67880;SDS011;54680;52.486;-1.890;2022-11-15T14:34:53;4.15;;;0.90;;
67880;SDS011;54680;52.486;-1.890;2022-11-15T14:37:27;1.00;;;0.80;;
67880;SDS011;54680;52.486;-1.890;2022-11-15T14:39:59;2.15;;;1.00;;
67880;SDS011;54680;52.486;-1.890;2022-11-15T14:42:26;0.93;;;0.70;;
67880;SDS011;54680;52.486;-1.890;2022-11-15T14:44:52;0.77;;;0.77;;
67880;SDS011;54680;52.486;-1.890;2022-11-15T14:47:20;3.05;;;0.60;;
67880;SDS011;54680;52.486;-1.890;2022-11-15T14:49:45;1.05;;;0.95;;
67880;SDS011;54680;52.486;-1.890;2022-11-15T14:52:27;3.65;;;0.90;;
67880;SDS011;54680;52.486;-1.890;2022-11-15T14:54:54;1.65;;;0.80;;
67880;SDS011;54680;52.486;-1.890;2022-11-15T14:57:22;1.67;;;0.90;;
67880;SDS011;54680;52.486;-1.890;2022-11-15T14:59:48;0.98;;;0.52;;
67880;SDS011;54680;52.486;-1.890;2022-11-15T15:02:18;1.75;;;0.90;;
67880;SDS011;54680;52.486;-1.890;2022-11-15T15:04:46;1.95;;;0.90;;
67880;SDS011;54680;52.486;-1.890;2022-11-15T15:07:11;1.40;;;1.10;;
67880;SDS011;54680;52.486;-1.890;2022-11-15T15:09:37;1.45;;;0.65;;
67880;SDS011;54680;52.486;-1.890;2022-11-15T15:12:03;2.08;;;0.90;;
67880;SDS011;54680;52.486;-1.890;2022-11-15T15:14:28;2.75;;;1.08;;
67880;SDS011;54680;52.486;-1.890;2022-11-15T15:16:54;3.00;;;0.82;;
67880;SDS011;54680;52.486;-1.890;2022-11-15T15:19:19;0.88;;;0.73;;
67880;SDS011;54680;52.486;-1.890;2022-11-15T15:21:45;2.17;;;0.98;;
67880;SDS011;54680;52.486;-1.890;2022-11-15T15:24:13;3.33;;;1.27;;
67880;SDS011;54680;52.486;-1.890;2022-11-15T15:26:40;2.03;;;0.98;;
67880;SDS011;54680;52.486;-1.890;2022-11-15T15:29:05;1.23;;;0.73;;
67880;SDS011;54680;52.486;-1.890;2022-11-15T15:31:33;1.38;;;0.68;;
67880;SDS011;54680;52.486;-1.890;2022-11-15T15:33:58;1.10;;;1.00;;
67880;SDS011;54680;52.486;-1.890;2022-11-15T15:36:24;1.80;;;0.95;;
67880;SDS011;54680;52.486;-1.890;2022-11-15T15:38:49;1.85;;;0.90;;
67880;SDS011;54680;52.486;-1.890;2022-11-15T15:41:15;2.42;;;0.95;;
67880;SDS011;54680;52.486;-1.890;2022-11-15T15:43:41;1.60;;;0.90;;
67880;SDS011;54680;52.486;-1.890;2022-11-15T15:46:09;2.50;;;1.00;;
67880;SDS011;54680;52.486;-1.890;2022-11-15T15:48:36;3.38;;;1.48;;
67880;SDS011;54680;52.486;-1.890;2022-11-15T15:51:04;3.28;;;1.10;;
67880;SDS011;54680;52.486;-1.890;2022-11-15T15:53:30;1.73;;;1.00;;
67880;SDS011;54680;52.486;-1.890;2022-11-15T15:55:56;2.97;;;1.25;;
67880;SDS011;54680;52.486;-1.890;2022-11-15T15:58:21;3.13;;;1.15;;
67880;SDS011;54680;52.486;-1.890;2022-11-15T16:00:46;4.43;;;1.05;;
67880;SDS011;54680;52.486;-1.890;2022-11-15T16:03:12;3.95;;;1.23;;
67880;SDS011;54680;52.486;-1.890;2022-11-15T16:05:37;5.30;;;1.40;;
67880;SDS011;54680;52.486;-1.890;2022-11-15T16:08:03;1.48;;;0.90;;
67880;SDS011;54680;52.486;-1.890;2022-11-15T16:10:34;3.35;;;1.25;;
67880;SDS011;54680;52.486;-1.890;2022-11-15T16:12:59;1.98;;;1.15;;
67880;SDS011;54680;52.486;-1.890;2022-11-15T16:15:26;1.85;;;1.10;;
67880;SDS011;54680;52.486;-1.890;2022-11-15T16:17:55;1.75;;;1.08;;
67880;SDS011;54680;52.486;-1.890;2022-11-15T16:20:24;1.70;;;1.20;;
67880;SDS011;54680;52.486;-1.890;2022-11-15T16:22:56;2.10;;;1.02;;
67880;SDS011;54680;52.486;-1.890;2022-11-15T16:25:22;3.80;;;1.20;;
67880;SDS011;54680;52.486;-1.890;2022-11-15T16:27:48;1.75;;;1.17;;
67880;SDS011;54680;52.486;-1.890;2022-11-15T16:30:14;2.38;;;1.15;;
67880;SDS011;54680;52.486;-1.890;2022-11-15T16:32:41;1.05;;;1.00;;
67880;SDS011;54680;52.486;-1.890;2022-11-15T16:35:07;2.47;;;1.08;;
67880;SDS011;54680;52.486;-1.890;2022-11-15T16:37:35;2.80;;;1.20;;
67880;SDS011;54680;52.486;-1.890;2022-11-15T16:40:01;3.28;;;1.25;;
67880;SDS011;54680;52.486;-1.890;2022-11-15T16:42:26;2.63;;;1.23;;
67880;SDS011;54680;52.486;-1.890;2022-11-15T16:44:51;2.45;;;1.20;;
67880;SDS011;54680;52.486;-1.890;2022-11-15T16:47:17;2.47;;;1.17;;
67880;SDS011;54680;52.486;-1.890;2022-11-15T16:49:44;2.22;;;1.40;;
67880;SDS011;54680;52.486;-1.890;2022-11-15T16:52:09;2.40;;;1.33;;
67880;SDS011;54680;52.486;-1.890;2022-11-15T16:54:35;2.45;;;1.20;;
67880;SDS011;54680;52.486;-1.890;2022-11-15T16:57:00;2.92;;;1.33;;
67880;SDS011;54680;52.486;-1.890;2022-11-15T16:59:26;2.28;;;1.10;;
67880;SDS011;54680;52.486;-1.890;2022-11-15T17:01:51;3.45;;;1.38;;
67880;SDS011;54680;52.486;-1.890;2022-11-15T17:04:17;5.18;;;1.45;;
67880;SDS011;54680;52.486;-1.890;2022-11-15T17:06:45;1.38;;;1.05;;
67880;SDS011;54680;52.486;-1.890;2022-11-15T17:09:16;3.08;;;1.60;;
67880;SDS011;54680;52.486;-1.890;2022-11-15T17:11:43;4.30;;;1.23;;
67880;SDS011;54680;52.486;-1.890;2022-11-15T17:14:09;3.88;;;1.38;;
67880;SDS011;54680;52.486;-1.890;2022-11-15T17:16:35;2.35;;;1.33;;
67880;SDS011;54680;52.486;-1.890;2022-11-15T17:19:02;3.17;;;1.33;;
67880;SDS011;54680;52.486;-1.890;2022-11-15T17:21:29;3.47;;;1.58;;
67880;SDS011;54680;52.486;-1.890;2022-11-15T17:23:54;2.17;;;1.48;;
67880;SDS011;54680;52.486;-1.890;2022-11-15T17:26:20;2.38;;;1.20;;
67880;SDS011;54680;52.486;-1.890;2022-11-15T17:28:46;3.97;;;1.40;;
67880;SDS011;54680;52.486;-1.890;2022-11-15T17:31:12;5.90;;;1.60;;
67880;SDS011;54680;52.486;-1.890;2022-11-15T17:33:38;3.25;;;1.55;;
67880;SDS011;54680;52.486;-1.890;2022-11-15T17:36:06;3.92;;;1.48;;
67880;SDS011;54680;52.486;-1.890;2022-11-15T17:38:34;4.53;;;1.67;;
67880;SDS011;54680;52.486;-1.890;2022-11-15T17:41:02;4.20;;;1.50;;
67880;SDS011;54680;52.486;-1.890;2022-11-15T17:43:30;5.20;;;1.67;;
67880;SDS011;54680;52.486;-1.890;2022-11-15T17:45:57;5.38;;;1.70;;
67880;SDS011;54680;52.486;-1.890;2022-11-15T17:48:24;2.03;;;1.33;;
67880;SDS011;54680;52.486;-1.890;2022-11-15T17:50:54;3.20;;;1.60;;
67880;SDS011;54680;52.486;-1.890;2022-11-15T17:53:21;3.13;;;1.33;;
67880;SDS011;54680;52.486;-1.890;2022-11-15T17:55:46;2.97;;;1.42;;
67880;SDS011;54680;52.486;-1.890;2022-11-15T17:58:12;4.97;;;1.55;;
67880;SDS011;54680;52.486;-1.890;2022-11-15T18:00:37;3.42;;;1.52;;
67880;SDS011;54680;52.486;-1.890;2022-11-15T18:03:02;2.85;;;1.33;;
67880;SDS011;54680;52.486;-1.890;2022-11-15T18:05:28;3.35;;;1.65;;
67880;SDS011;54680;52.486;-1.890;2022-11-15T18:07:53;2.75;;;1.65;;
67880;SDS011;54680;52.486;-1.890;2022-11-15T18:10:19;2.97;;;1.48;;
67880;SDS011;54680;52.486;-1.890;2022-11-15T18:12:44;2.70;;;1.60;;
67880;SDS011;54680;52.486;-1.890;2022-11-15T18:15:09;3.03;;;1.52;;
67880;SDS011;54680;52.486;-1.890;2022-11-15T18:17:35;4.25;;;1.65;;
67880;SDS011;54680;52.486;-1.890;2022-11-15T18:20:01;4.18;;;1.70;;
67880;SDS011;54680;52.486;-1.890;2022-11-15T18:22:27;4.10;;;1.67;;
67880;SDS011;54680;52.486;-1.890;2022-11-15T18:24:52;3.92;;;1.52;;
67880;SDS011;54680;52.486;-1.890;2022-11-15T18:27:17;5.30;;;1.80;;
67880;SDS011;54680;52.486;-1.890;2022-11-15T18:29:43;5.38;;;1.80;;
67880;SDS011;54680;52.486;-1.890;2022-11-15T18:32:09;5.43;;;1.63;;
67880;SDS011;54680;52.486;-1.890;2022-11-15T18:34:36;3.58;;;1.98;;
67880;SDS011;54680;52.486;-1.890;2022-11-15T18:37:02;1.98;;;1.40;;
67880;SDS011;54680;52.486;-1.890;2022-11-15T18:39:28;4.90;;;2.03;;
67880;SDS011;54680;52.486;-1.890;2022-11-15T18:41:53;4.30;;;1.80;;
67880;SDS011;54680;52.486;-1.890;2022-11-15T18:44:19;3.03;;;1.52;;
67880;SDS011;54680;52.486;-1.890;2022-11-15T18:46:44;3.05;;;1.58;;
67880;SDS011;54680;52.486;-1.890;2022-11-15T18:49:10;4.22;;;1.80;;
67880;SDS011;54680;52.486;-1.890;2022-11-15T18:51:37;4.28;;;1.75;;
67880;SDS011;54680;52.486;-1.890;2022-11-15T18:54:06;4.68;;;1.73;;
67880;SDS011;54680;52.486;-1.890;2022-11-15T18:56:32;3.42;;;1.52;;
67880;SDS011;54680;52.486;-1.890;2022-11-15T18:58:59;3.00;;;1.60;;
67880;SDS011;54680;52.486;-1.890;2022-11-15T19:01:27;3.38;;;1.73;;
67880;SDS011;54680;52.486;-1.890;2022-11-15T19:03:57;3.70;;;1.70;;
67880;SDS011;54680;52.486;-1.890;2022-11-15T19:06:25;4.43;;;1.65;;
67880;SDS011;54680;52.486;-1.890;2022-11-15T19:08:53;3.05;;;1.70;;
67880;SDS011;54680;52.486;-1.890;2022-11-15T19:11:22;4.20;;;1.92;;
67880;SDS011;54680;52.486;-1.890;2022-11-15T19:13:54;3.28;;;1.70;;
67880;SDS011;54680;52.486;-1.890;2022-11-15T19:16:20;4.72;;;1.85;;
67880;SDS011;54680;52.486;-1.890;2022-11-15T19:18:46;5.07;;;1.70;;
67880;SDS011;54680;52.486;-1.890;2022-11-15T19:21:11;2.95;;;1.65;;
67880;SDS011;54680;52.486;-1.890;2022-11-15T19:23:39;3.30;;;1.77;;
67880;SDS011;54680;52.486;-1.890;2022-11-15T19:26:06;2.88;;;1.52;;
67880;SDS011;54680;52.486;-1.890;2022-11-15T19:28:35;5.65;;;1.95;;
67880;SDS011;54680;52.486;-1.890;2022-11-15T19:31:02;2.15;;;1.60;;
67880;SDS011;54680;52.486;-1.890;2022-11-15T19:33:29;4.68;;;1.90;;
67880;SDS011;54680;52.486;-1.890;2022-11-15T19:35:58;3.60;;;1.75;;
67880;SDS011;54680;52.486;-1.890;2022-11-15T19:38:25;4.28;;;1.73;;
67880;SDS011;54680;52.486;-1.890;2022-11-15T19:40:55;3.33;;;1.75;;
67880;SDS011;54680;52.486;-1.890;2022-11-15T19:43:22;5.40;;;1.77;;
67880;SDS011;54680;52.486;-1.890;2022-11-15T19:45:51;4.18;;;1.80;;
67880;SDS011;54680;52.486;-1.890;2022-11-15T19:48:17;4.35;;;1.70;;
67880;SDS011;54680;52.486;-1.890;2022-11-15T19:50:43;2.65;;;1.60;;
67880;SDS011;54680;52.486;-1.890;2022-11-15T19:53:08;5.47;;;1.77;;
67880;SDS011;54680;52.486;-1.890;2022-11-15T19:55:33;5.50;;;1.90;;
67880;SDS011;54680;52.486;-1.890;2022-11-15T19:57:59;3.70;;;1.77;;
67880;SDS011;54680;52.486;-1.890;2022-11-15T20:00:24;3.22;;;1.63;;
67880;SDS011;54680;52.486;-1.890;2022-11-15T20:02:49;5.72;;;1.75;;
67880;SDS011;54680;52.486;-1.890;2022-11-15T20:05:15;2.92;;;1.38;;
67880;SDS011;54680;52.486;-1.890;2022-11-15T20:07:40;4.40;;;1.83;;
67880;SDS011;54680;52.486;-1.890;2022-11-15T20:10:06;2.65;;;1.50;;
67880;SDS011;54680;52.486;-1.890;2022-11-15T20:12:31;3.20;;;1.50;;
67880;SDS011;54680;52.486;-1.890;2022-11-15T20:14:57;2.78;;;1.77;;
67880;SDS011;54680;52.486;-1.890;2022-11-15T20:17:23;3.67;;;1.30;;
67880;SDS011;54680;52.486;-1.890;2022-11-15T20:19:49;4.15;;;1.70;;
67880;SDS011;54680;52.486;-1.890;2022-11-15T20:22:14;4.53;;;1.50;;
67880;SDS011;54680;52.486;-1.890;2022-11-15T20:24:40;2.50;;;1.50;;
67880;SDS011;54680;52.486;-1.890;2022-11-15T20:27:05;3.20;;;1.33;;
67880;SDS011;54680;52.486;-1.890;2022-11-15T20:29:30;3.13;;;1.60;;
67880;SDS011;54680;52.486;-1.890;2022-11-15T20:31:56;3.72;;;1.38;;
67880;SDS011;54680;52.486;-1.890;2022-11-15T20:34:21;3.15;;;1.67;;
67880;SDS011;54680;52.486;-1.890;2022-11-15T20:36:46;3.13;;;1.50;;
67880;SDS011;54680;52.486;-1.890;2022-11-15T20:39:12;2.47;;;1.58;;
67880;SDS011;54680;52.486;-1.890;2022-11-15T20:41:37;3.10;;;1.67;;
67880;SDS011;54680;52.486;-1.890;2022-11-15T20:44:03;2.53;;;1.65;;
67880;SDS011;54680;52.486;-1.890;2022-11-15T20:46:28;4.43;;;1.55;;
67880;SDS011;54680;52.486;-1.890;2022-11-15T20:48:54;3.33;;;1.50;;
67880;SDS011;54680;52.486;-1.890;2022-11-15T20:51:19;1.67;;;1.20;;
67880;SDS011;54680;52.486;-1.890;2022-11-15T20:53:45;2.25;;;1.70;;
67880;SDS011;54680;52.486;-1.890;2022-11-15T20:56:13;4.88;;;1.55;;
67880;SDS011;54680;52.486;-1.890;2022-11-15T20:58:41;2.50;;;1.30;;
67880;SDS011;54680;52.486;-1.890;2022-11-15T21:01:08;3.00;;;1.45;;
67880;SDS011;54680;52.486;-1.890;2022-11-15T21:03:35;5.13;;;1.40;;
67880;SDS011;54680;52.486;-1.890;2022-11-15T21:06:01;3.45;;;1.33;;
67880;SDS011;54680;52.486;-1.890;2022-11-15T21:08:26;3.85;;;1.40;;
67880;SDS011;54680;52.486;-1.890;2022-11-15T21:10:52;3.85;;;1.60;;
67880;SDS011;54680;52.486;-1.890;2022-11-15T21:13:35;4.78;;;1.52;;
67880;SDS011;54680;52.486;-1.890;2022-11-15T21:16:00;1.35;;;1.23;;
67880;SDS011;54680;52.486;-1.890;2022-11-15T21:18:27;1.67;;;1.33;;
67880;SDS011;54680;52.486;-1.890;2022-11-15T21:20:53;2.97;;;1.45;;
67880;SDS011;54680;52.486;-1.890;2022-11-15T21:23:18;2.55;;;1.30;;
67880;SDS011;54680;52.486;-1.890;2022-11-15T21:25:47;4.20;;;1.55;;
67880;SDS011;54680;52.486;-1.890;2022-11-15T21:28:14;4.95;;;1.50;;
67880;SDS011;54680;52.486;-1.890;2022-11-15T21:30:39;1.30;;;1.20;;
67880;SDS011;54680;52.486;-1.890;2022-11-15T21:33:05;2.75;;;1.60;;
67880;SDS011;54680;52.486;-1.890;2022-11-15T21:35:30;3.40;;;1.52;;
67880;SDS011;54680;52.486;-1.890;2022-11-15T21:37:56;4.10;;;1.42;;
67880;SDS011;54680;52.486;-1.890;2022-11-15T21:40:22;3.80;;;1.30;;
67880;SDS011;54680;52.486;-1.890;2022-11-15T21:42:49;3.13;;;1.58;;
67880;SDS011;54680;52.486;-1.890;2022-11-15T21:45:15;2.67;;;1.20;;
67880;SDS011;54680;52.486;-1.890;2022-11-15T21:47:40;4.95;;;1.52;;
67880;SDS011;54680;52.486;-1.890;2022-11-15T21:50:06;2.28;;;1.25;;
67880;SDS011;54680;52.486;-1.890;2022-11-15T21:52:31;2.30;;;1.15;;
67880;SDS011;54680;52.486;-1.890;2022-11-15T21:54:57;1.80;;;1.20;;
67880;SDS011;54680;52.486;-1.890;2022-11-15T21:57:22;3.33;;;1.40;;
67880;SDS011;54680;52.486;-1.890;2022-11-15T21:59:47;2.50;;;1.52;;
67880;SDS011;54680;52.486;-1.890;2022-11-15T22:02:25;3.65;;;1.30;;
67880;SDS011;54680;52.486;-1.890;2022-11-15T22:04:50;2.85;;;1.40;;
67880;SDS011;54680;52.486;-1.890;2022-11-15T22:07:16;4.05;;;1.35;;
67880;SDS011;54680;52.486;-1.890;2022-11-15T22:09:41;3.83;;;1.30;;
67880;SDS011;54680;52.486;-1.890;2022-11-15T22:12:06;3.00;;;1.38;;
67880;SDS011;54680;52.486;-1.890;2022-11-15T22:14:32;2.72;;;1.30;;
67880;SDS011;54680;52.486;-1.890;2022-11-15T22:16:57;1.55;;;1.00;;
67880;SDS011;54680;52.486;-1.890;2022-11-15T22:19:23;4.55;;;1.55;;
67880;SDS011;54680;52.486;-1.890;2022-11-15T22:21:48;2.05;;;1.30;;
67880;SDS011;54680;52.486;-1.890;2022-11-15T22:24:13;4.03;;;1.00;;
67880;SDS011;54680;52.486;-1.890;2022-11-15T22:26:39;2.78;;;1.42;;
67880;SDS011;54680;52.486;-1.890;2022-11-15T22:29:04;3.10;;;1.23;;
67880;SDS011;54680;52.486;-1.890;2022-11-15T22:31:29;3.20;;;1.15;;
67880;SDS011;54680;52.486;-1.890;2022-11-15T22:33:55;1.55;;;1.00;;
67880;SDS011;54680;52.486;-1.890;2022-11-15T22:36:20;1.67;;;1.15;;
67880;SDS011;54680;52.486;-1.890;2022-11-15T22:38:46;2.42;;;1.20;;
67880;SDS011;54680;52.486;-1.890;2022-11-15T22:41:11;2.17;;;1.15;;
67880;SDS011;54680;52.486;-1.890;2022-11-15T22:43:36;3.45;;;1.38;;
67880;SDS011;54680;52.486;-1.890;2022-11-15T22:46:02;2.13;;;1.10;;
67880;SDS011;54680;52.486;-1.890;2022-11-15T22:48:30;2.30;;;1.20;;
67880;SDS011;54680;52.486;-1.890;2022-11-15T22:50:58;2.20;;;1.27;;
67880;SDS011;54680;52.486;-1.890;2022-11-15T22:53:24;2.83;;;1.50;;
67880;SDS011;54680;52.486;-1.890;2022-11-15T22:55:51;2.40;;;1.50;;
67880;SDS011;54680;52.486;-1.890;2022-11-15T22:58:19;2.35;;;1.33;;
67880;SDS011;54680;52.486;-1.890;2022-11-15T23:00:47;2.10;;;1.20;;
67880;SDS011;54680;52.486;-1.890;2022-11-15T23:03:14;2.72;;;1.20;;
67880;SDS011;54680;52.486;-1.890;2022-11-15T23:05:39;1.73;;;1.30;;
67880;SDS011;54680;52.486;-1.890;2022-11-15T23:08:06;1.83;;;1.10;;
67880;SDS011;54680;52.486;-1.890;2022-11-15T23:10:31;1.58;;;1.08;;
67880;SDS011;54680;52.486;-1.890;2022-11-15T23:13:15;2.15;;;1.35;;
67880;SDS011;54680;52.486;-1.890;2022-11-15T23:15:42;3.60;;;1.30;;
67880;SDS011;54680;52.486;-1.890;2022-11-15T23:18:25;1.58;;;1.00;;
67880;SDS011;54680;52.486;-1.890;2022-11-15T23:20:52;2.35;;;1.20;;
67880;SDS011;54680;52.486;-1.890;2022-11-15T23:23:18;2.13;;;1.20;;
67880;SDS011;54680;52.486;-1.890;2022-11-15T23:25:44;3.45;;;1.42;;
67880;SDS011;54680;52.486;-1.890;2022-11-15T23:28:10;1.35;;;1.05;;
67880;SDS011;54680;52.486;-1.890;2022-11-15T23:30:35;2.90;;;1.20;;
67880;SDS011;54680;52.486;-1.890;2022-11-15T23:33:15;0.80;;;0.80;;
67880;SDS011;54680;52.486;-1.890;2022-11-15T23:35:55;2.30;;;1.08;;
67880;SDS011;54680;52.486;-1.890;2022-11-15T23:38:21;2.00;;;1.05;;
67880;SDS011;54680;52.486;-1.890;2022-11-15T23:40:53;1.52;;;1.15;;
67880;SDS011;54680;52.486;-1.890;2022-11-15T23:43:20;1.50;;;1.13;;
67880;SDS011;54680;52.486;-1.890;2022-11-15T23:45:46;1.65;;;1.10;;
67880;SDS011;54680;52.486;-1.890;2022-11-15T23:48:12;2.65;;;1.20;;
67880;SDS011;54680;52.486;-1.890;2022-11-15T23:50:37;4.60;;;1.13;;
67880;SDS011;54680;52.486;-1.890;2022-11-15T23:53:03;2.70;;;1.13;;
67880;SDS011;54680;52.486;-1.890;2022-11-15T23:55:29;4.45;;;1.45;;
67880;SDS011;54680;52.486;-1.890;2022-11-15T23:57:54;2.25;;;1.05;;
